Time;durP1;ratioP1;P1;durP2;ratioP2;P2;SDS_P1;SDS_P2;PMS_P1;PMS_P2;Temp;Humidity;BMP_temperature;BMP_pressure;BME280_temperature;BME280_humidity;BME280_pressure;Samples;Min_cycle;Max_cycle;Signal;HPM_P1;HPM_P2
2022/08/13 00:00:10;;;;;;;5.15;3.45;;;;;;;21.94;nan;-24426.59;4940337;29;20241;-80
2022/08/13 00:02:39;;;;;;;6.32;4.25;;;;;;;21.87;nan;-24424.66;4939978;29;20196;-80
2022/08/13 00:05:05;;;;;;;5.68;3.45;;;;;;;21.97;nan;-24427.41;4955993;28;20186;-80
2022/08/13 00:07:31;;;;;;;6.50;3.88;;;;;;;21.94;nan;-24426.72;4939686;29;20748;-80
2022/08/13 00:09:59;;;;;;;5.38;3.25;;;;;;;21.68;nan;-24419.38;4939189;29;20182;-80
2022/08/13 00:15:43;;;;;;;5.45;3.70;;;;;;;21.93;nan;-24426.44;4954729;29;20240;-81
2022/08/13 00:18:15;;;;;;;6.65;3.60;;;;;;;21.90;nan;-24425.47;4953017;29;20198;-81
2022/08/13 00:20:55;;;;;;;6.25;3.80;;;;;;;21.78;nan;-24422.16;4939638;29;20268;-81
2022/08/13 00:23:23;;;;;;;5.95;3.90;;;;;;;21.87;nan;-24424.78;4957021;29;20185;-81
2022/08/13 00:25:54;;;;;;;6.57;4.53;;;;;;;21.79;nan;-24422.44;4940489;29;20201;-80
2022/08/13 00:28:26;;;;;;;5.28;3.67;;;;;;;21.65;nan;-24418.69;4971392;28;20192;-80
2022/08/13 00:30:52;;;;;;;7.13;3.75;;;;;;;21.53;nan;-24415.38;4939275;29;20186;-80
2022/08/13 00:33:20;;;;;;;5.07;3.42;;;;;;;21.79;nan;-24422.44;4956503;29;20305;-81
2022/08/13 00:35:49;;;;;;;7.18;4.05;;;;;;;21.73;nan;-24420.91;4938472;29;20288;-82
2022/08/13 00:38:18;;;;;;;6.72;4.22;;;;;;;21.39;nan;-24411.50;4955298;29;20185;-82
2022/08/13 00:40:45;;;;;;;6.20;3.72;;;;;;;21.47;nan;-24413.84;4953014;29;20188;-81
2022/08/13 00:43:12;;;;;;;6.95;3.97;;;;;;;21.44;nan;-24412.88;4956730;29;20182;-81
2022/08/13 00:45:38;;;;;;;6.10;3.97;;;;;;;21.19;nan;-24405.94;4938708;29;20194;-81
2022/08/13 00:50:50;;;;;;;5.28;3.55;;;;;;;21.20;nan;-24406.34;4957135;29;20201;-80
2022/08/13 00:53:18;;;;;;;6.95;3.85;;;;;;;21.26;nan;-24407.88;4937353;29;20280;-81
2022/08/13 00:55:51;;;;;;;9.90;4.10;;;;;;;21.29;nan;-24408.72;4954439;28;20194;-81
2022/08/13 00:58:19;;;;;;;7.13;4.13;;;;;;;21.28;nan;-24408.44;4937056;29;20177;-80
2022/08/13 01:00:50;;;;;;;6.97;4.07;;;;;;;21.14;nan;-24404.69;4952785;29;20293;-80
2022/08/13 01:03:17;;;;;;;6.82;4.13;;;;;;;21.15;nan;-24405.09;4966662;28;20190;-81
2022/08/13 01:05:45;;;;;;;5.30;3.55;;;;;;;20.97;nan;-24400.13;4936153;29;20186;-80
2022/08/13 01:08:12;;;;;;;6.10;3.80;;;;;;;20.88;nan;-24397.63;4936079;29;20198;-81
2022/08/13 01:10:38;;;;;;;9.75;4.55;;;;;;;21.12;nan;-24404.28;4952642;29;20178;-80
2022/08/13 01:13:09;;;;;;;9.75;4.72;;;;;;;21.06;nan;-24402.59;4935351;29;20288;-81
2022/08/13 01:15:36;;;;;;;6.82;4.15;;;;;;;21.17;nan;-24405.53;4935222;29;20233;-81
2022/08/13 01:18:02;;;;;;;6.88;3.95;;;;;;;21.28;nan;-24408.44;4936097;29;20190;-81
2022/08/13 01:20:31;;;;;;;7.20;4.30;;;;;;;21.30;nan;-24409.00;4934653;29;20186;-81
2022/08/13 01:22:58;;;;;;;6.22;4.70;;;;;;;21.13;nan;-24404.41;4934113;29;20202;-81
2022/08/13 01:25:25;;;;;;;10.63;5.40;;;;;;;21.10;nan;-24403.72;4935081;29;20197;-82
2022/08/13 01:27:53;;;;;;;9.15;4.65;;;;;;;20.69;nan;-24392.34;4935360;29;20201;-82
2022/08/13 01:30:22;;;;;;;12.40;4.78;;;;;;;20.94;nan;-24399.28;4953069;29;20182;-80
2022/08/13 01:32:48;;;;;;;6.50;4.07;;;;;;;20.70;nan;-24392.75;4935809;29;20253;-80
2022/08/13 01:35:16;;;;;;;8.05;4.30;;;;;;;20.86;nan;-24397.06;4953142;29;20217;-79
2022/08/13 01:37:43;;;;;;;7.47;4.15;;;;;;;20.75;nan;-24394.00;4953157;29;20185;-79
2022/08/13 01:40:10;;;;;;;7.13;3.95;;;;;;;20.58;nan;-24389.44;4967357;28;20190;-80
2022/08/13 01:42:46;;;;;;;8.90;4.60;;;;;;;20.58;nan;-24389.44;4953303;29;20673;-80
2022/08/13 01:45:13;;;;;;;7.50;4.30;;;;;;;20.31;nan;-24381.78;4967049;28;20249;-82
2022/08/13 01:50:29;;;;;;;6.93;4.40;;;;;;;20.61;nan;-24390.13;4951927;29;20189;-81
2022/08/13 01:53:07;;;;;;;8.18;4.68;;;;;;;20.52;nan;-24387.63;4933748;29;20668;-80
2022/08/13 01:55:39;;;;;;;7.38;4.20;;;;;;;20.72;nan;-24393.31;4951076;29;20197;-81
2022/08/13 01:58:18;;;;;;;7.20;4.50;;;;;;;20.52;nan;-24387.63;4967168;28;20221;-81
2022/08/13 02:00:47;;;;;;;9.07;4.43;;;;;;;20.66;nan;-24391.50;4952025;29;20191;-81
2022/08/13 02:03:16;;;;;;;9.10;4.55;;;;;;;20.65;nan;-24391.22;4934763;29;20194;-80
2022/08/13 02:05:42;;;;;;;8.57;4.43;;;;;;;20.24;nan;-24380.00;4967199;28;20708;-79
2022/08/13 02:08:11;;;;;;;6.10;4.22;;;;;;;20.47;nan;-24386.38;4938547;29;20281;-81
2022/08/13 02:10:39;;;;;;;6.63;4.18;;;;;;;20.18;nan;-24378.31;4969433;28;20197;-80
2022/08/13 02:13:06;;;;;;;9.00;4.03;;;;;;;20.42;nan;-24385.00;4956387;29;20216;-80
2022/08/13 02:15:32;;;;;;;6.03;4.05;;;;;;;20.38;nan;-24383.75;4956583;29;20241;-81
2022/08/13 02:18:01;;;;;;;8.52;4.15;;;;;;;20.32;nan;-24382.22;4955310;29;20182;-80
2022/08/13 02:20:28;;;;;;;6.78;3.72;;;;;;;20.28;nan;-24381.09;4937871;29;20182;-80
2022/08/13 02:22:54;;;;;;;8.50;4.38;;;;;;;20.26;nan;-24380.69;4938982;29;20197;-80
2022/08/13 02:25:23;;;;;;;6.55;4.18;;;;;;;20.23;nan;-24379.72;4956702;29;20192;-80
2022/08/13 02:27:48;;;;;;;8.15;4.53;;;;;;;20.27;nan;-24380.97;4956256;29;20180;-80
2022/08/13 02:30:16;;;;;;;8.32;4.75;;;;;;;20.57;nan;-24389.00;4938706;29;20220;-81
2022/08/13 02:32:42;;;;;;;8.55;4.22;;;;;;;20.18;nan;-24378.31;4939316;29;20250;-80
2022/08/13 02:35:08;;;;;;;6.80;4.18;;;;;;;20.34;nan;-24382.78;4939518;29;20252;-81
2022/08/13 02:37:35;;;;;;;8.18;4.32;;;;;;;20.41;nan;-24384.56;4938197;29;20182;-81
2022/08/13 02:40:04;;;;;;;9.70;4.55;;;;;;;20.29;nan;-24381.50;4937281;29;20202;-79
2022/08/13 02:42:31;;;;;;;7.15;4.57;;;;;;;20.18;nan;-24378.31;4938761;29;20372;-80
2022/08/13 02:44:58;;;;;;;7.93;4.82;;;;;;;20.27;nan;-24380.81;4938387;29;20213;-80
2022/08/13 02:47:25;;;;;;;7.18;4.65;;;;;;;20.38;nan;-24383.88;4938522;29;20280;-80
2022/08/13 02:49:52;;;;;;;7.13;4.43;;;;;;;20.28;nan;-24381.09;4956071;29;20192;-79
2022/08/13 02:52:19;;;;;;;7.53;4.55;;;;;;;20.00;nan;-24373.47;4938746;29;20189;-80
2022/08/13 02:54:47;;;;;;;9.68;4.55;;;;;;;20.22;nan;-24379.56;4969542;28;20316;-80
2022/08/13 02:57:13;;;;;;;7.68;4.65;;;;;;;20.32;nan;-24382.22;4953755;29;20715;-80
2022/08/13 02:59:40;;;;;;;7.28;4.32;;;;;;;20.27;nan;-24380.81;4937716;29;20272;-80
2022/08/13 03:02:06;;;;;;;7.15;4.20;;;;;;;20.11;nan;-24376.50;4937797;29;20194;-81
2022/08/13 03:04:33;;;;;;;10.93;4.82;;;;;;;20.11;nan;-24376.50;4939972;29;20591;-79
2022/08/13 03:06:59;;;;;;;7.75;4.38;;;;;;;20.05;nan;-24374.84;4938993;29;20186;-79
2022/08/13 03:09:25;;;;;;;8.00;4.15;;;;;;;20.37;nan;-24383.47;4939045;29;20213;-79
2022/08/13 03:11:50;;;;;;;9.52;4.97;;;;;;;20.25;nan;-24380.41;4939500;29;20190;-79
2022/08/13 03:14:17;;;;;;;9.65;4.80;;;;;;;20.19;nan;-24378.59;4956313;29;20218;-80
2022/08/13 03:16:43;;;;;;;9.00;4.70;;;;;;;20.22;nan;-24379.56;4953727;29;20305;-80
2022/08/13 03:19:10;;;;;;;9.88;5.38;;;;;;;20.33;nan;-24382.34;4937248;29;20713;-81
2022/08/13 03:21:39;;;;;;;9.23;5.28;;;;;;;20.26;nan;-24380.69;4938409;29;20217;-80
2022/08/13 03:24:07;;;;;;;8.82;5.20;;;;;;;20.07;nan;-24375.25;4936892;29;21504;-80
2022/08/13 03:26:33;;;;;;;11.10;5.60;;;;;;;20.03;nan;-24374.16;4937873;29;20653;-80
2022/08/13 03:29:00;;;;;;;10.30;4.75;;;;;;;19.77;nan;-24367.06;4938055;29;20198;-80
2022/08/13 03:31:27;;;;;;;8.23;4.95;;;;;;;19.97;nan;-24372.63;4938671;29;20586;-79
2022/08/13 03:33:54;;;;;;;9.40;5.00;;;;;;;19.97;nan;-24372.63;4938189;29;20213;-81
2022/08/13 03:36:21;;;;;;;9.63;5.03;;;;;;;19.97;nan;-24372.63;4938152;29;20610;-80
2022/08/13 03:38:47;;;;;;;7.60;4.50;;;;;;;20.06;nan;-24375.00;4936737;29;20198;-81
2022/08/13 03:41:14;;;;;;;7.97;4.70;;;;;;;20.25;nan;-24380.41;4954746;29;20200;-80
2022/08/13 03:43:45;;;;;;;11.57;6.38;;;;;;;20.66;nan;-24391.50;4938040;29;20226;-81
2022/08/13 03:46:17;;;;;;;16.80;7.20;;;;;;;21.12;nan;-24404.28;4953738;29;20218;-80
2022/08/13 03:48:43;;;;;;;11.70;6.05;;;;;;;21.59;nan;-24417.03;4950636;29;20654;-80
2022/08/13 03:51:09;;;;;;;16.80;5.78;;;;;;;21.87;nan;-24424.78;4954174;29;20190;-81
2022/08/13 03:53:35;;;;;;;8.77;4.65;;;;;;;21.82;nan;-24423.41;4936373;29;21084;-80
2022/08/13 03:56:03;;;;;;;8.65;4.70;;;;;;;21.69;nan;-24419.66;4937111;29;20192;-80
2022/08/13 03:58:29;;;;;;;8.60;4.82;;;;;;;21.95;nan;-24427.00;4936036;29;20174;-81
2022/08/13 04:00:56;;;;;;;11.63;5.15;;;;;;;22.09;nan;-24430.59;4937064;29;20190;-80
2022/08/13 04:03:29;;;;;;;10.50;5.05;;;;;;;22.70;nan;-24447.50;4938454;29;20194;-82
2022/08/13 04:06:01;;;;;;;9.40;4.72;;;;;;;23.59;nan;-24471.81;4937243;29;20190;-81
2022/08/13 04:08:29;;;;;;;8.13;4.70;;;;;;;24.13;nan;-24486.56;4952183;29;20645;-79
2022/08/13 04:10:57;;;;;;;7.50;4.88;;;;;;;24.45;nan;-24495.25;4937016;29;20185;-81
2022/08/13 04:13:27;;;;;;;10.20;4.68;;;;;;;24.92;nan;-24508.06;4937468;29;20210;-80
2022/08/13 04:15:52;;;;;;;9.10;5.30;;;;;;;25.43;nan;-24521.97;4937133;29;20230;-80
2022/08/13 04:18:18;;;;;;;9.82;4.60;;;;;;;25.75;nan;-24530.50;4954866;29;20189;-80
2022/08/13 04:20:49;;;;;;;12.63;4.75;;;;;;;26.30;nan;-24545.47;4937258;29;20189;-80
2022/08/13 04:23:16;;;;;;;8.35;4.82;;;;;;;26.95;nan;-24563.06;4936140;29;20229;-80
2022/08/13 04:25:46;;;;;;;8.68;5.10;;;;;;;27.51;nan;-24578.28;4955671;29;20190;-80
2022/08/13 04:28:12;;;;;;;8.82;5.25;;;;;;;27.93;nan;-24589.78;4953361;29;20174;-79
2022/08/13 04:30:41;;;;;;;7.40;4.38;;;;;;;28.16;nan;-24595.94;4968676;28;20192;-80
2022/08/13 04:33:11;;;;;;;8.63;5.03;;;;;;;28.16;nan;-24595.81;4936500;29;20198;-79
2022/08/13 04:35:37;;;;;;;8.95;4.75;;;;;;;27.69;nan;-24583.22;4953783;29;20213;-80
2022/08/13 04:38:05;;;;;;;8.60;4.68;;;;;;;28.04;nan;-24592.66;4950840;28;20182;-79
2022/08/13 04:40:36;;;;;;;9.20;5.50;;;;;;;27.73;nan;-24584.31;4936456;29;20202;-79
2022/08/13 04:43:02;;;;;;;10.88;4.70;;;;;;;27.57;nan;-24580.06;4953935;29;20198;-79
2022/08/13 04:45:29;;;;;;;8.75;5.05;;;;;;;27.03;nan;-24565.38;4953512;29;20364;-79
2022/08/13 04:47:59;;;;;;;9.15;4.75;;;;;;;25.87;nan;-24533.81;4935643;29;20253;-80
2022/08/13 04:50:26;;;;;;;9.05;5.53;;;;;;;25.19;nan;-24515.22;4935953;29;20267;-80
2022/08/13 04:52:52;;;;;;;9.23;5.30;;;;;;;25.10;nan;-24512.88;4950732;29;20178;-79
2022/08/13 04:55:18;;;;;;;9.68;5.22;;;;;;;24.79;nan;-24504.34;4935374;29;20702;-80
2022/08/13 04:57:43;;;;;;;9.98;5.18;;;;;;;24.62;nan;-24499.94;4931597;29;20194;-80
2022/08/13 05:00:10;;;;;;;9.38;5.20;;;;;;;24.12;nan;-24486.16;4928393;29;20272;-79
2022/08/13 05:02:40;;;;;;;8.65;5.57;;;;;;;24.31;nan;-24491.25;4948365;29;20696;-81
2022/08/13 05:05:06;;;;;;;9.18;5.35;;;;;;;24.25;nan;-24489.75;4929599;29;20186;-79
2022/08/13 05:07:32;;;;;;;9.57;5.53;;;;;;;23.97;nan;-24482.16;4929388;29;20205;-80
2022/08/13 05:09:57;;;;;;;8.82;5.10;;;;;;;24.58;nan;-24498.84;4948829;29;20534;-79
2022/08/13 05:12:23;;;;;;;7.88;4.80;;;;;;;24.69;nan;-24501.72;4948788;29;20561;-80
2022/08/13 05:14:49;;;;;;;8.38;4.93;;;;;;;24.50;nan;-24496.63;4934600;29;20312;-79
2022/08/13 05:17:14;;;;;;;9.02;5.03;;;;;;;24.50;nan;-24496.50;4932219;29;20201;-80
2022/08/13 05:19:41;;;;;;;9.50;4.85;;;;;;;24.87;nan;-24506.56;4929635;29;20186;-80
2022/08/13 05:22:07;;;;;;;8.38;5.22;;;;;;;24.69;nan;-24501.72;4963623;28;20196;-80
2022/08/13 05:24:33;;;;;;;7.65;5.15;;;;;;;24.43;nan;-24494.69;4931153;29;20189;-80
2022/08/13 05:26:58;;;;;;;8.35;5.50;;;;;;;24.32;nan;-24491.53;4930639;29;20190;-79
2022/08/13 05:29:24;;;;;;;10.38;5.07;;;;;;;24.14;nan;-24486.69;4948984;29;20200;-79
2022/08/13 05:31:52;;;;;;;7.57;5.00;;;;;;;23.92;nan;-24480.63;4931395;29;20907;-80
2022/08/13 05:34:18;;;;;;;7.57;4.53;;;;;;;24.40;nan;-24493.88;4932878;29;20224;-79
2022/08/13 05:36:45;;;;;;;8.05;4.65;;;;;;;23.51;nan;-24469.59;4931964;29;20585;-78
2022/08/13 05:39:11;;;;;;;7.07;4.75;;;;;;;24.12;nan;-24486.16;4931740;29;20186;-81
2022/08/13 05:41:38;;;;;;;9.20;5.22;;;;;;;24.02;nan;-24483.41;4931711;28;20859;-78
2022/08/13 05:44:03;;;;;;;7.20;4.47;;;;;;;24.05;nan;-24484.22;4947510;29;20851;-78
2022/08/13 05:46:30;;;;;;;6.18;4.43;;;;;;;24.01;nan;-24483.13;4951079;29;20213;-79
2022/08/13 05:48:58;;;;;;;8.52;4.75;;;;;;;24.28;nan;-24490.56;4932683;29;20564;-80
2022/08/13 05:51:28;;;;;;;8.07;4.68;;;;;;;24.52;nan;-24497.19;4931555;29;20198;-80
2022/08/13 05:53:56;;;;;;;8.43;4.85;;;;;;;24.69;nan;-24501.59;4950316;29;20213;-80
2022/08/13 05:56:22;;;;;;;11.43;4.93;;;;;;;25.18;nan;-24515.09;4949334;29;20214;-80
2022/08/13 05:58:48;;;;;;;7.30;4.47;;;;;;;25.07;nan;-24512.19;4932870;29;20182;-82
2022/08/13 06:04:00;;;;;;;7.95;4.88;;;;;;;25.70;nan;-24529.25;4949674;29;20189;-79
2022/08/13 06:06:26;;;;;;;6.72;4.32;;;;;;;25.94;nan;-24535.72;4949214;29;20256;-79
2022/08/13 06:08:56;;;;;;;7.60;4.72;;;;;;;25.99;nan;-24536.97;4931601;29;20217;-79
2022/08/13 06:11:21;;;;;;;8.18;5.40;;;;;;;26.16;nan;-24541.63;4947724;29;20261;-81
2022/08/13 06:13:49;;;;;;;6.53;4.28;;;;;;;26.48;nan;-24550.28;4930479;29;20372;-79
2022/08/13 06:16:20;;;;;;;9.77;5.35;;;;;;;26.60;nan;-24553.59;4949816;29;20233;-80
2022/08/13 06:18:48;;;;;;;8.15;4.80;;;;;;;27.02;nan;-24565.13;4930502;29;20185;-79
2022/08/13 06:21:15;;;;;;;9.43;5.38;;;;;;;27.11;nan;-24567.59;4962877;28;20192;-78
2022/08/13 06:23:44;;;;;;;9.65;5.78;;;;;;;26.76;nan;-24558.13;4930965;29;21902;-81
2022/08/13 06:26:12;;;;;;;8.23;4.93;;;;;;;27.44;nan;-24576.34;4930912;29;20186;-79
2022/08/13 06:28:39;;;;;;;10.30;5.43;;;;;;;27.66;nan;-24582.38;4932698;29;20201;-79
2022/08/13 06:31:06;;;;;;;9.23;4.65;;;;;;;28.06;nan;-24593.22;4932617;29;20190;-80
2022/08/13 06:33:36;;;;;;;6.82;4.63;;;;;;;28.33;nan;-24600.47;4932154;29;20209;-80
2022/08/13 06:36:12;;;;;;;12.15;4.90;;;;;;;28.59;nan;-24607.56;4950308;29;20196;-78
2022/08/13 06:38:43;;;;;;;9.93;5.68;;;;;;;28.79;nan;-24613.03;4947608;29;20189;-80
2022/08/13 06:41:11;;;;;;;8.90;5.30;;;;;;;29.20;nan;-24624.13;4930468;29;20269;-80
2022/08/13 06:43:41;;;;;;;10.93;5.72;;;;;;;29.34;nan;-24627.81;4929214;29;20192;-79
2022/08/13 06:46:08;;;;;;;6.80;4.75;;;;;;;29.66;nan;-24636.41;4929381;29;20277;-79
2022/08/13 06:48:34;;;;;;;9.93;5.32;;;;;;;29.79;nan;-24640.09;4948465;29;20217;-79
2022/08/13 06:51:06;;;;;;;8.00;4.63;;;;;;;29.56;nan;-24633.81;4962890;28;20264;-79
2022/08/13 06:53:35;;;;;;;9.60;5.25;;;;;;;29.93;nan;-24643.63;4949232;28;20206;-79
2022/08/13 06:56:03;;;;;;;8.20;5.07;;;;;;;29.84;nan;-24641.31;4950700;29;20189;-79
2022/08/13 06:58:30;;;;;;;7.93;5.03;;;;;;;29.79;nan;-24640.09;4950251;29;20193;-79
2022/08/13 07:00:58;;;;;;;7.25;4.40;;;;;;;29.75;nan;-24639.00;4956066;29;20221;-75
2022/08/13 07:03:29;;;;;;;7.57;4.70;;;;;;;30.01;nan;-24645.94;4945160;29;20269;-81
2022/08/13 07:05:59;;;;;;;7.78;4.55;;;;;;;29.74;nan;-24638.59;4953343;29;20197;-79
2022/08/13 07:08:27;;;;;;;8.57;5.00;;;;;;;29.70;nan;-24637.50;4958015;29;20189;-80
2022/08/13 07:13:44;;;;;;;6.90;4.60;;;;;;;29.34;nan;-24627.81;4957259;29;20296;-81
2022/08/13 07:16:14;;;;;;;10.30;5.32;;;;;;;29.35;nan;-24628.06;4957659;28;20243;-79
2022/08/13 07:18:39;;;;;;;8.38;4.80;;;;;;;29.62;nan;-24635.31;4940608;29;20648;-80
2022/08/13 07:21:10;;;;;;;7.60;5.00;;;;;;;29.71;nan;-24637.91;4940495;29;20192;-79
2022/08/13 07:23:40;;;;;;;8.05;4.82;;;;;;;29.67;nan;-24636.81;4939800;29;20252;-79
2022/08/13 07:26:06;;;;;;;9.98;4.63;;;;;;;30.15;nan;-24649.78;4957495;29;20193;-79
2022/08/13 07:28:33;;;;;;;7.68;4.68;;;;;;;30.55;nan;-24660.41;4957402;29;20195;-82
2022/08/13 07:31:00;;;;;;;9.32;4.85;;;;;;;30.80;nan;-24667.22;4940105;29;20189;-81
2022/08/13 07:33:26;;;;;;;8.63;5.32;;;;;;;30.99;nan;-24672.38;4957653;29;20205;-79
2022/08/13 07:35:52;;;;;;;7.70;4.90;;;;;;;31.14;nan;-24676.34;4937695;29;20186;-79
2022/08/13 07:38:19;;;;;;;7.00;4.68;;;;;;;31.15;nan;-24676.59;4940630;29;20208;-81
2022/08/13 07:40:51;;;;;;;7.22;4.70;;;;;;;31.05;nan;-24674.03;4941010;29;20189;-79
2022/08/13 07:43:19;;;;;;;9.15;5.43;;;;;;;31.05;nan;-24673.88;4957569;29;20181;-80
2022/08/13 07:46:02;;;;;;;12.38;4.90;;;;;;;30.64;nan;-24662.84;4938285;29;20186;-79
2022/08/13 07:48:31;;;;;;;8.05;5.00;;;;;;;30.76;nan;-24665.97;4939463;29;20190;-80
2022/08/13 07:50:59;;;;;;;11.25;5.45;;;;;;;30.25;nan;-24652.34;4956891;29;20221;-79
2022/08/13 07:53:24;;;;;;;10.30;5.32;;;;;;;29.80;nan;-24640.34;4940753;29;20586;-79
2022/08/13 07:55:51;;;;;;;8.57;5.10;;;;;;;30.02;nan;-24646.22;4957286;28;20273;-79
2022/08/13 07:58:18;;;;;;;11.52;5.93;;;;;;;29.50;nan;-24632.19;4955626;29;20275;-78
2022/08/13 08:00:45;;;;;;;12.05;6.15;;;;;;;30.06;nan;-24647.31;4955712;29;20177;-79
2022/08/13 08:03:12;;;;;;;9.95;6.25;;;;;;;30.19;nan;-24650.72;4955765;29;20563;-78
2022/08/13 08:05:41;;;;;;;10.68;5.45;;;;;;;30.46;nan;-24658.09;4937967;29;20244;-79
2022/08/13 08:08:10;;;;;;;10.82;6.15;;;;;;;31.00;nan;-24672.66;4938550;29;20185;-78
2022/08/13 08:10:41;;;;;;;11.65;7.00;;;;;;;28.30;nan;-24599.66;4937678;29;20724;-79
2022/08/13 08:13:08;;;;;;;9.68;6.10;;;;;;;31.36;nan;-24682.19;4959468;29;20197;-79
2022/08/13 08:15:37;;;;;;;8.80;5.70;;;;;;;31.18;nan;-24677.28;4938424;29;20272;-79
2022/08/13 08:18:04;;;;;;;10.25;5.75;;;;;;;31.25;nan;-24679.31;4957017;29;20182;-79
2022/08/13 08:20:29;;;;;;;10.18;5.68;;;;;;;31.35;nan;-24682.03;4957867;29;20643;-81
2022/08/13 08:22:55;;;;;;;10.32;6.43;;;;;;;31.41;nan;-24683.53;4940304;29;20272;-78
2022/08/13 08:25:21;;;;;;;8.68;5.50;;;;;;;30.88;nan;-24669.25;4939605;29;20200;-80
2022/08/13 08:27:48;;;;;;;9.85;5.82;;;;;;;30.12;nan;-24648.94;4939720;29;20668;-79
2022/08/13 08:30:19;;;;;;;12.30;6.53;;;;;;;29.87;nan;-24642.00;4957497;28;20261;-80
2022/08/13 08:32:51;;;;;;;11.60;6.78;;;;;;;30.21;nan;-24651.28;4939568;29;20204;-79
2022/08/13 08:35:20;;;;;;;8.77;5.35;;;;;;;30.47;nan;-24658.38;4939118;29;20213;-78
2022/08/13 08:43:32;;;;;;;11.23;6.63;;;;;;;31.29;nan;-24680.41;4959215;29;20276;-80
2022/08/13 08:45:57;;;;;;;9.93;5.80;;;;;;;31.63;nan;-24689.53;4956640;29;20667;-79
2022/08/13 08:48:23;;;;;;;10.70;6.95;;;;;;;31.58;nan;-24688.31;4971687;28;20181;-80
2022/08/13 08:50:49;;;;;;;10.23;5.95;;;;;;;31.40;nan;-24683.28;4957016;29;20177;-79
2022/08/13 08:53:19;;;;;;;9.45;5.97;;;;;;;30.39;nan;-24656.19;4957002;29;20631;-78
2022/08/13 08:55:46;;;;;;;10.02;6.07;;;;;;;31.34;nan;-24681.78;4938586;29;20550;-79
2022/08/13 08:58:13;;;;;;;9.23;5.75;;;;;;;31.48;nan;-24685.44;4938941;29;20272;-79
2022/08/13 09:00:40;;;;;;;10.52;6.05;;;;;;;31.51;nan;-24686.41;4939316;29;20663;-79
2022/08/13 09:03:08;;;;;;;9.45;6.00;;;;;;;31.85;nan;-24695.50;4938242;29;20240;-79
2022/08/13 09:05:34;;;;;;;11.27;6.00;;;;;;;31.75;nan;-24692.66;4938505;29;20186;-78
2022/08/13 09:08:07;;;;;;;11.15;6.03;;;;;;;31.97;nan;-24698.75;4938962;29;20692;-79
2022/08/13 09:10:35;;;;;;;11.15;6.53;;;;;;;31.57;nan;-24687.91;4951761;29;20216;-80
2022/08/13 09:13:03;;;;;;;10.38;6.72;;;;;;;31.83;nan;-24694.81;4947878;29;20264;-80
2022/08/13 09:15:33;;;;;;;10.38;6.47;;;;;;;31.98;nan;-24699.03;4930710;29;20225;-78
2022/08/13 09:18:00;;;;;;;11.02;5.97;;;;;;;31.91;nan;-24697.00;4947779;28;20178;-80
2022/08/13 09:20:28;;;;;;;11.45;6.38;;;;;;;31.56;nan;-24687.75;4950392;29;20193;-79
2022/08/13 09:23:03;;;;;;;9.27;6.22;;;;;;;31.36;nan;-24682.19;4935542;29;20229;-79
2022/08/13 09:25:30;;;;;;;10.40;5.95;;;;;;;31.45;nan;-24684.75;4933662;29;20189;-79
2022/08/13 09:27:56;;;;;;;11.35;5.90;;;;;;;31.79;nan;-24693.75;4950241;29;20193;-78
2022/08/13 09:30:24;;;;;;;10.10;5.82;;;;;;;31.55;nan;-24687.34;4933761;29;20190;-79
2022/08/13 09:32:53;;;;;;;9.77;6.18;;;;;;;31.95;nan;-24698.22;4953473;29;20246;-78
2022/08/13 09:35:18;;;;;;;10.55;6.57;;;;;;;32.56;nan;-24714.38;4952116;29;20763;-79
2022/08/13 09:37:44;;;;;;;11.50;6.35;;;;;;;32.51;nan;-24713.03;4936481;29;20192;-78
2022/08/13 09:40:16;;;;;;;14.60;6.32;;;;;;;32.66;nan;-24717.22;4953954;29;20192;-79
2022/08/13 09:42:57;;;;;;;9.18;5.85;;;;;;;32.14;nan;-24703.13;4930443;29;20185;-79
2022/08/13 09:45:27;;;;;;;10.43;6.25;;;;;;;31.56;nan;-24687.63;4955250;29;20185;-75
2022/08/13 09:47:53;;;;;;;11.07;5.70;;;;;;;31.08;nan;-24674.69;4939064;29;20208;-77
2022/08/13 09:50:21;;;;;;;10.38;5.95;;;;;;;30.98;nan;-24672.09;4954343;29;20189;-78
2022/08/13 09:52:48;;;;;;;11.30;6.43;;;;;;;31.06;nan;-24674.28;4936536;29;20652;-79
2022/08/13 09:55:14;;;;;;;9.82;6.00;;;;;;;31.58;nan;-24688.16;4955590;29;20209;-78
2022/08/13 09:57:59;;;;;;;13.25;5.53;;;;;;;32.10;nan;-24702.03;4969067;28;20196;-77
2022/08/13 10:00:28;;;;;;;8.75;5.70;;;;;;;31.71;nan;-24691.56;4955900;29;20177;-77
2022/08/13 10:02:59;;;;;;;10.70;5.38;;;;;;;31.17;nan;-24677.16;4937281;29;20181;-77
2022/08/13 10:05:25;;;;;;;9.00;5.88;;;;;;;31.58;nan;-24688.03;4941727;29;20560;-79
2022/08/13 10:07:52;;;;;;;9.82;5.70;;;;;;;31.48;nan;-24685.59;4938681;29;20185;-78
2022/08/13 10:10:18;;;;;;;9.50;5.63;;;;;;;31.35;nan;-24681.91;4935449;29;20632;-80
2022/08/13 10:12:44;;;;;;;12.18;6.70;;;;;;;31.19;nan;-24677.56;4939471;29;20205;-80
2022/08/13 10:15:10;;;;;;;10.38;5.70;;;;;;;31.04;nan;-24673.59;4939692;29;20667;-78
2022/08/13 10:17:43;;;;;;;10.10;5.57;;;;;;;31.09;nan;-24675.09;4943820;29;20649;-78
2022/08/13 10:20:10;;;;;;;10.43;5.90;;;;;;;30.92;nan;-24670.47;4942645;29;20193;-77
2022/08/13 10:22:35;;;;;;;9.52;5.65;;;;;;;31.01;nan;-24672.94;4958244;29;20182;-78
2022/08/13 10:25:00;;;;;;;11.38;5.93;;;;;;;31.20;nan;-24677.97;4939571;29;20633;-78
2022/08/13 10:27:26;;;;;;;9.30;5.75;;;;;;;31.77;nan;-24693.19;4939193;29;20571;-80
2022/08/13 10:29:51;;;;;;;9.15;5.32;;;;;;;31.90;nan;-24696.72;4957643;28;20181;-78
2022/08/13 10:32:17;;;;;;;9.10;5.60;;;;;;;31.89;nan;-24696.47;4940201;29;20199;-79
2022/08/13 10:34:44;;;;;;;8.55;4.90;;;;;;;31.65;nan;-24689.94;4940429;29;20978;-80
2022/08/13 10:37:09;;;;;;;8.48;4.82;;;;;;;31.53;nan;-24686.94;4943239;29;20181;-78
2022/08/13 10:39:36;;;;;;;8.90;4.85;;;;;;;31.36;nan;-24682.31;4944964;29;20264;-78
2022/08/13 10:42:02;;;;;;;8.00;5.05;;;;;;;31.69;nan;-24691.16;4941758;29;20174;-78
2022/08/13 10:44:27;;;;;;;8.65;5.10;;;;;;;31.95;nan;-24698.09;4960238;29;20192;-78
2022/08/13 10:46:53;;;;;;;9.13;4.95;;;;;;;32.35;nan;-24708.81;4959501;29;20190;-78
2022/08/13 10:49:18;;;;;;;7.85;5.00;;;;;;;32.82;nan;-24721.44;4960984;29;20181;-79
2022/08/13 10:51:44;;;;;;;8.05;4.40;;;;;;;33.12;nan;-24729.56;4959481;29;20650;-78
2022/08/13 10:54:10;;;;;;;8.88;5.28;;;;;;;33.16;nan;-24730.66;4960334;29;20220;-80
2022/08/13 10:56:36;;;;;;;7.90;5.30;;;;;;;32.39;nan;-24709.91;4943778;29;20193;-78
2022/08/13 10:59:04;;;;;;;8.13;4.65;;;;;;;32.18;nan;-24704.34;4959214;29;20213;-78
2022/08/13 11:01:32;;;;;;;7.65;5.03;;;;;;;32.10;nan;-24702.16;4940736;29;20187;-79
2022/08/13 11:04:02;;;;;;;7.40;4.43;;;;;;;31.67;nan;-24690.47;4941253;29;20186;-79
2022/08/13 11:06:28;;;;;;;7.30;4.70;;;;;;;32.10;nan;-24702.16;4959335;29;20223;-79
2022/08/13 11:08:57;;;;;;;7.25;4.82;;;;;;;32.37;nan;-24709.50;4942168;29;20273;-79
2022/08/13 11:11:23;;;;;;;11.05;4.80;;;;;;;32.83;nan;-24721.69;4957269;28;20187;-80
2022/08/13 11:13:48;;;;;;;9.73;5.00;;;;;;;32.67;nan;-24717.50;4941362;29;20288;-80
2022/08/13 11:18:58;;;;;;;8.20;4.38;;;;;;;32.33;nan;-24708.41;4956058;29;20185;-81
2022/08/13 11:21:25;;;;;;;10.80;5.38;;;;;;;32.68;nan;-24717.78;4941819;29;20196;-80
2022/08/13 11:23:52;;;;;;;10.40;4.95;;;;;;;33.04;nan;-24727.25;4958522;29;20208;-78
2022/08/13 11:26:19;;;;;;;6.32;4.47;;;;;;;32.90;nan;-24723.59;4941053;29;20186;-79
2022/08/13 11:28:45;;;;;;;8.48;4.60;;;;;;;32.67;nan;-24717.38;4942089;29;20240;-78
2022/08/13 11:31:10;;;;;;;6.47;4.40;;;;;;;32.61;nan;-24715.88;4941740;29;20185;-79
2022/08/13 11:33:36;;;;;;;7.15;4.30;;;;;;;32.48;nan;-24712.34;4943519;29;20219;-79
2022/08/13 11:36:02;;;;;;;7.22;4.53;;;;;;;31.43;nan;-24684.22;4958567;28;20212;-79
2022/08/13 11:38:29;;;;;;;7.40;4.22;;;;;;;31.61;nan;-24688.97;4944704;29;20177;-76
2022/08/13 11:40:58;;;;;;;6.47;4.38;;;;;;;31.70;nan;-24691.28;4943258;29;20196;-79
2022/08/13 11:43:26;;;;;;;7.10;4.28;;;;;;;31.77;nan;-24693.19;4960209;29;20200;-78
2022/08/13 11:45:52;;;;;;;9.18;4.55;;;;;;;31.92;nan;-24697.28;4940100;29;20185;-79
2022/08/13 11:48:19;;;;;;;6.80;4.28;;;;;;;32.22;nan;-24705.28;4941809;29;20557;-77
2022/08/13 11:50:47;;;;;;;6.50;3.97;;;;;;;32.27;nan;-24706.78;4942374;29;20284;-78
2022/08/13 11:53:12;;;;;;;9.32;4.60;;;;;;;32.43;nan;-24711.13;4958724;29;20268;-79
2022/08/13 11:55:38;;;;;;;6.22;3.97;;;;;;;32.32;nan;-24708.00;4962746;29;20212;-79
2022/08/13 11:58:06;;;;;;;7.15;4.47;;;;;;;32.03;nan;-24700.25;4972272;28;20256;-79
2022/08/13 12:00:33;;;;;;;6.72;4.20;;;;;;;32.33;nan;-24708.28;4944025;29;20627;-78
2022/08/13 12:03:03;;;;;;;7.43;4.50;;;;;;;31.53;nan;-24686.94;4960568;29;20212;-79